Terminal Aerodrome Forecast
Issued by NWS Chicago, IL

Home | Current Version | Previous Version | Graphics & Text | Print | Product List | Glossary On
Versions: 1 2 3 4 5 6 7 8 9 10 11 12 13 14 15 16 17 18 19 20 21 22 23 24 25 26 27 28 29 30 31
026
FTUS43 KLOT 140541
TAFRFD
TAF
KRFD 140541Z 1406/1506 05008KT 6SM BR VCSH FEW007 OVC050
      TEMPO 1406/1407 4SM -SHRA OVC010
     FM140700 07007KT 3SM -SHRA VCTS SCT005 OVC008CB
     FM141100 09008KT 4SM BR VCSH SCT004 OVC007
     FM141700 15008KT 5SM -SHRA BR VCTS OVC009CB
     FM150000 17011KT 3SM SHRA OVC015
     FM150500 22011KT 6SM -SHRA BR OVC009=

USA.gov is the U.S. government's official web portal to all federal, state and local government web resources and services.